Schedule Details


Flight Number: CTN411
Departure: Frankfurt/main (EDDF) at 15:55
Arrival: Kastela (LDSP) at 17:15
Route: NOMBO UZ738 MUN UM867 VAROB DCT GIMIX DCT SABAD L862 GISER UL862 PALEZ L862 OKLAX

Weather Information
EDDF 242120Z 08004KT CAVOK 24/16 Q1019 NOSIG
LDSP 242130Z AUTO 27005KT 220V330 CAVOK 26/15 Q1017
Schedule Frequency

Route Map